Time,TemperatureF,DewpointF,PressureIn,WindDirection,WindDirectionDegrees,WindSpeedMPH,WindSpeedGustMPH,Humidity,HourlyPrecipIn,Conditions,Clouds,dailyrainin,SolarRadiationWatts/m^2,SoftwareType,DateUTC
2013-04-27 00:21:00,34.0,34.0,-100.00,North,6,8.0,13.0,100,0.00,,,3.08,0.000000,,2013-04-27 08:21:00,
2013-04-27 00:33:00,34.0,34.0,-100.00,North,6,8.0,13.0,100,0.00,,,3.08,0.000000,,2013-04-27 08:33:00,
2013-04-27 00:41:00,34.0,34.0,-100.00,North,6,8.0,13.0,100,0.00,,,3.08,0.000000,,2013-04-27 08:41:00,
2013-04-27 00:51:00,34.0,34.0,-100.00,North,6,8.0,13.0,100,0.00,,,3.08,0.000000,,2013-04-27 08:51:00,
2013-04-27 01:21:00,33.0,33.0,-100.00,North,349,9.0,14.0,100,0.00,,,2.85,0.000000,,2013-04-27 09:21:00,
2013-04-27 01:33:00,33.0,33.0,-100.00,North,349,9.0,14.0,100,0.00,,,2.85,0.000000,,2013-04-27 09:33:00,
2013-04-27 01:42:00,33.0,33.0,-100.00,North,349,9.0,14.0,100,0.00,,,2.85,0.000000,,2013-04-27 09:42:00,
2013-04-27 01:53:00,33.0,33.0,-100.00,North,349,9.0,14.0,100,0.00,,,2.85,0.000000,,2013-04-27 09:53:00,
2013-04-27 02:22:00,33.0,33.0,-100.00,NNW,348,7.0,13.0,100,0.01,,,2.70,0.000000,,2013-04-27 10:22:00,
2013-04-27 02:32:00,33.0,33.0,-100.00,NNW,348,7.0,13.0,100,0.01,,,2.70,0.000000,,2013-04-27 10:32:00,
2013-04-27 02:42:00,33.0,33.0,-100.00,NNW,348,7.0,13.0,100,0.01,,,2.70,0.000000,,2013-04-27 10:42:00,
2013-04-27 02:52:00,33.0,33.0,-100.00,NNW,348,7.0,13.0,100,0.01,,,2.70,0.000000,,2013-04-27 10:52:00,
2013-04-27 03:22:00,32.0,32.0,-100.00,NNW,328,4.0,12.0,100,0.00,,,2.53,0.000000,,2013-04-27 11:22:00,
2013-04-27 03:31:00,32.0,32.0,-100.00,NNW,328,4.0,12.0,100,0.00,,,2.53,0.000000,,2013-04-27 11:31:00,
2013-04-27 03:41:00,32.0,32.0,-100.00,NNW,328,4.0,12.0,100,0.00,,,2.53,0.000000,,2013-04-27 11:41:00,
2013-04-27 03:52:00,32.0,32.0,-100.00,NNW,328,4.0,12.0,100,0.00,,,2.53,0.000000,,2013-04-27 11:52:00,
2013-04-27 04:21:00,32.0,32.0,-100.00,North,350,5.0,9.0,100,0.00,,,2.39,0.000000,,2013-04-27 12:21:00,
2013-04-27 04:32:00,32.0,32.0,-100.00,North,350,5.0,9.0,100,0.00,,,2.39,0.000000,,2013-04-27 12:32:00,
2013-04-27 04:42:00,32.0,32.0,-100.00,North,350,5.0,9.0,100,0.00,,,2.39,0.000000,,2013-04-27 12:42:00,
2013-04-27 04:51:00,32.0,32.0,-100.00,North,350,5.0,9.0,100,0.00,,,2.39,0.000000,,2013-04-27 12:51:00,
2013-04-27 05:21:00,33.0,33.0,-100.00,North,352,6.0,13.0,100,0.01,,,2.27,0.000000,,2013-04-27 13:21:00,
2013-04-27 05:32:00,33.0,33.0,-100.00,North,352,6.0,13.0,100,0.01,,,2.27,0.000000,,2013-04-27 13:32:00,
2013-04-27 05:41:00,33.0,33.0,-100.00,North,352,6.0,13.0,100,0.01,,,2.27,0.000000,,2013-04-27 13:41:00,
2013-04-27 05:52:00,33.0,33.0,-100.00,North,352,6.0,13.0,100,0.01,,,2.27,0.000000,,2013-04-27 13:52:00,
2013-04-27 06:21:00,33.0,33.0,-100.00,North,358,6.0,14.0,100,0.00,,,2.19,1.000000,,2013-04-27 14:21:00,
2013-04-27 06:31:00,33.0,33.0,-100.00,North,358,6.0,14.0,100,0.00,,,2.19,1.000000,,2013-04-27 14:31:00,
2013-04-27 06:41:00,33.0,33.0,-100.00,North,358,6.0,14.0,100,0.00,,,2.19,1.000000,,2013-04-27 14:41:00,
2013-04-27 06:52:00,33.0,33.0,-100.00,North,358,6.0,14.0,100,0.00,,,2.19,1.000000,,2013-04-27 14:52:00,
2013-04-27 07:21:00,34.0,34.0,-100.00,NNE,17,5.0,11.0,100,0.00,,,-99.99,33.000000,,2013-04-27 15:21:00,
2013-04-27 07:33:00,34.0,34.0,-100.00,NNE,17,5.0,11.0,100,0.00,,,-99.99,33.000000,,2013-04-27 15:33:00,
2013-04-27 07:42:00,34.0,34.0,-100.00,NNE,17,5.0,11.0,100,0.00,,,-99.99,33.000000,,2013-04-27 15:42:00,
2013-04-27 07:52:00,34.0,34.0,-100.00,NNE,17,5.0,11.0,100,0.00,,,-99.99,33.000000,,2013-04-27 15:52:00,
2013-04-27 08:22:00,35.0,35.0,-100.00,North,3,5.0,9.0,100,0.00,,,-99.99,106.000000,,2013-04-27 16:22:00,
2013-04-27 08:32:00,35.0,35.0,-100.00,North,3,5.0,9.0,100,0.00,,,-99.99,106.000000,,2013-04-27 16:32:00,
2013-04-27 08:42:00,35.0,35.0,-100.00,North,3,5.0,9.0,100,0.00,,,-99.99,106.000000,,2013-04-27 16:42:00,
2013-04-27 08:52:00,35.0,35.0,-100.00,North,3,5.0,9.0,100,0.00,,,-99.99,106.000000,,2013-04-27 16:52:00,
2013-04-27 09:22:00,36.0,36.0,-100.00,NNE,19,10.0,16.0,100,0.09,,,1.84,169.000000,,2013-04-27 17:22:00,
2013-04-27 09:31:00,36.0,36.0,-100.00,NNE,19,10.0,16.0,100,0.09,,,1.84,169.000000,,2013-04-27 17:31:00,
2013-04-27 09:42:00,36.0,36.0,-100.00,NNE,19,10.0,16.0,100,0.09,,,1.84,169.000000,,2013-04-27 17:42:00,
2013-04-27 09:52:00,36.0,36.0,-100.00,NNE,19,10.0,16.0,100,0.09,,,1.84,169.000000,,2013-04-27 17:52:00,
2013-04-27 10:22:00,36.0,36.0,-100.00,NNE,19,8.0,15.0,100,0.14,,,1.82,147.000000,,2013-04-27 18:22:00,
2013-04-27 10:32:00,36.0,36.0,-100.00,NNE,19,8.0,15.0,100,0.14,,,1.82,147.000000,,2013-04-27 18:32:00,
2013-04-27 10:41:00,36.0,36.0,-100.00,NNE,19,8.0,15.0,100,0.14,,,1.82,147.000000,,2013-04-27 18:41:00,
2013-04-27 10:51:00,36.0,36.0,-100.00,NNE,19,8.0,15.0,100,0.14,,,1.82,147.000000,,2013-04-27 18:51:00,
2013-04-27 11:21:00,38.0,38.0,-100.00,NNE,33,7.0,15.0,100,0.01,,,1.63,329.000000,,2013-04-27 19:21:00,
2013-04-27 11:32:00,38.0,38.0,-100.00,NNE,33,7.0,15.0,100,0.01,,,1.63,329.000000,,2013-04-27 19:32:00,
2013-04-27 11:42:00,38.0,38.0,-100.00,NNE,33,7.0,15.0,100,0.01,,,1.63,329.000000,,2013-04-27 19:42:00,
2013-04-27 11:52:00,38.0,38.0,-100.00,NNE,33,7.0,15.0,100,0.01,,,1.63,329.000000,,2013-04-27 19:52:00,
2013-04-27 12:21:00,36.0,34.0,-100.00,NNE,13,11.0,19.0,94,0.00,,,1.52,348.000000,,2013-04-27 20:21:00,
2013-04-27 12:32:00,36.0,34.0,-100.00,NNE,13,11.0,19.0,94,0.00,,,1.52,348.000000,,2013-04-27 20:32:00,
2013-04-27 12:42:00,36.0,34.0,-100.00,NNE,13,11.0,19.0,94,0.00,,,1.52,348.000000,,2013-04-27 20:42:00,
2013-04-27 12:52:00,36.0,34.0,-100.00,NNE,13,11.0,19.0,94,0.00,,,1.52,348.000000,,2013-04-27 20:52:00,
2013-04-27 13:21:00,38.0,38.0,-100.00,NNE,20,11.0,22.0,99,0.01,,,1.39,388.000000,,2013-04-27 21:21:00,
2013-04-27 13:32:00,38.0,38.0,-100.00,NNE,20,11.0,22.0,99,0.01,,,1.39,388.000000,,2013-04-27 21:32:00,
2013-04-27 13:42:00,38.0,38.0,-100.00,NNE,20,11.0,22.0,99,0.01,,,1.39,388.000000,,2013-04-27 21:42:00,
2013-04-27 13:53:00,38.0,38.0,-100.00,NNE,20,11.0,22.0,99,0.01,,,1.39,388.000000,,2013-04-27 21:53:00,
2013-04-27 14:22:00,40.0,39.0,-100.00,North,7,8.0,17.0,98,0.00,,,1.28,385.000000,,2013-04-27 22:22:00,
2013-04-27 14:32:00,40.0,39.0,-100.00,North,7,8.0,17.0,98,0.00,,,1.28,385.000000,,2013-04-27 22:32:00,
2013-04-27 14:42:00,40.0,39.0,-100.00,North,7,8.0,17.0,98,0.00,,,1.28,385.000000,,2013-04-27 22:42:00,
2013-04-27 14:52:00,40.0,39.0,-100.00,North,7,8.0,17.0,98,0.00,,,1.28,385.000000,,2013-04-27 22:52:00,
2013-04-27 15:22:00,38.0,38.0,-100.00,NNE,24,10.0,19.0,100,0.00,,,1.15,265.000000,,2013-04-27 23:22:00,
2013-04-27 15:32:00,38.0,38.0,-100.00,NNE,24,10.0,19.0,100,0.00,,,1.15,265.000000,,2013-04-27 23:32:00,
2013-04-27 15:42:00,38.0,38.0,-100.00,NNE,24,10.0,19.0,100,0.00,,,1.15,265.000000,,2013-04-27 23:42:00,
2013-04-27 15:52:00,38.0,38.0,-100.00,NNE,24,10.0,19.0,100,0.00,,,1.15,265.000000,,2013-04-27 23:52:00,
2013-04-27 16:21:00,36.0,36.0,-100.00,North,1,12.0,18.0,100,0.04,,,1.03,148.000000,,2013-04-28 00:21:00,
2013-04-27 16:31:00,36.0,36.0,-100.00,North,1,12.0,18.0,100,0.04,,,1.03,148.000000,,2013-04-28 00:31:00,
2013-04-27 16:42:00,36.0,36.0,-100.00,North,1,12.0,18.0,100,0.04,,,1.03,148.000000,,2013-04-28 00:42:00,
2013-04-27 16:52:00,36.0,36.0,-100.00,North,1,12.0,18.0,100,0.04,,,1.03,148.000000,,2013-04-28 00:52:00,
2013-04-27 17:21:00,35.0,35.0,-100.00,North,7,15.0,24.0,100,0.02,,,0.88,103.000000,,2013-04-28 01:21:00,
2013-04-27 17:31:00,35.0,35.0,-100.00,North,7,15.0,24.0,100,0.02,,,0.88,103.000000,,2013-04-28 01:31:00,
2013-04-27 17:41:00,35.0,35.0,-100.00,North,7,15.0,24.0,100,0.02,,,0.88,103.000000,,2013-04-28 01:41:00,
2013-04-27 17:52:00,35.0,35.0,-100.00,North,7,15.0,24.0,100,0.02,,,0.88,103.000000,,2013-04-28 01:52:00,
2013-04-27 18:21:00,35.0,35.0,-100.00,North,359,13.0,22.0,100,0.05,,,0.74,49.000000,,2013-04-28 02:21:00,
2013-04-27 18:32:00,35.0,35.0,-100.00,North,359,13.0,22.0,100,0.05,,,0.74,49.000000,,2013-04-28 02:32:00,
2013-04-27 18:42:00,35.0,35.0,-100.00,North,359,13.0,22.0,100,0.05,,,0.74,49.000000,,2013-04-28 02:42:00,
2013-04-27 18:52:00,35.0,35.0,-100.00,North,359,13.0,22.0,100,0.05,,,0.74,49.000000,,2013-04-28 02:52:00,
2013-04-27 19:21:00,35.0,35.0,-100.00,NNW,341,15.0,24.0,100,0.06,,,0.62,48.000000,,2013-04-28 03:21:00,
2013-04-27 19:32:00,35.0,35.0,-100.00,NNW,341,15.0,24.0,100,0.06,,,0.62,48.000000,,2013-04-28 03:32:00,
2013-04-27 19:42:00,35.0,35.0,-100.00,NNW,341,15.0,24.0,100,0.06,,,0.62,48.000000,,2013-04-28 03:42:00,
2013-04-27 19:53:00,35.0,35.0,-100.00,NNW,341,15.0,24.0,100,0.06,,,0.62,48.000000,,2013-04-28 03:53:00,
2013-04-27 20:22:00,35.0,35.0,-100.00,NNW,344,16.0,24.0,100,0.07,,,0.59,16.000000,,2013-04-28 04:22:00,
2013-04-27 20:32:00,35.0,35.0,-100.00,NNW,344,16.0,24.0,100,0.07,,,0.59,16.000000,,2013-04-28 04:32:00,
2013-04-27 20:42:00,35.0,35.0,-100.00,NNW,344,16.0,24.0,100,0.07,,,0.59,16.000000,,2013-04-28 04:42:00,
2013-04-27 20:52:00,35.0,35.0,-100.00,NNW,344,16.0,24.0,100,0.07,,,0.59,16.000000,,2013-04-28 04:52:00,
2013-04-27 21:22:00,35.0,35.0,-100.00,NNW,336,18.0,30.0,100,0.04,,,0.59,2.000000,,2013-04-28 05:22:00,
2013-04-27 21:32:00,35.0,35.0,-100.00,NNW,336,18.0,30.0,100,0.04,,,0.59,2.000000,,2013-04-28 05:32:00,
2013-04-27 21:42:00,35.0,35.0,-100.00,NNW,336,18.0,30.0,100,0.04,,,0.59,2.000000,,2013-04-28 05:42:00,
2013-04-27 21:52:00,35.0,35.0,-100.00,NNW,336,18.0,30.0,100,0.04,,,0.59,2.000000,,2013-04-28 05:52:00,
2013-04-27 22:21:00,34.0,34.0,-100.00,NNW,342,17.0,30.0,100,0.09,,,0.64,0.000000,,2013-04-28 06:21:00,
2013-04-27 22:32:00,34.0,34.0,-100.00,NNW,342,17.0,30.0,100,0.09,,,0.64,0.000000,,2013-04-28 06:32:00,
2013-04-27 22:42:00,34.0,34.0,-100.00,NNW,342,17.0,30.0,100,0.09,,,0.64,0.000000,,2013-04-28 06:42:00,
2013-04-27 22:51:00,34.0,34.0,-100.00,NNW,342,17.0,30.0,100,0.09,,,0.64,0.000000,,2013-04-28 06:51:00,
2013-04-27 23:21:00,34.0,34.0,-100.00,NNW,341,18.0,32.0,100,0.07,,,0.71,0.000000,,2013-04-28 07:21:00,
2013-04-27 23:31:00,34.0,34.0,-100.00,NNW,341,18.0,32.0,100,0.07,,,0.71,0.000000,,2013-04-28 07:31:00,
2013-04-27 23:42:00,34.0,34.0,-100.00,NNW,341,18.0,32.0,100,0.07,,,0.71,0.000000,,2013-04-28 07:42:00,
2013-04-27 23:52:00,34.0,34.0,-100.00,NNW,341,18.0,32.0,100,0.07,,,0.71,0.000000,,2013-04-28 07:52:00,